Terminal Aerodrome Forecast
Issued by NWS Louisville, KY

Home | Current Version | Previous Version | Text Only | Print | Product List | Glossary On
Versions: 1 2 3 4 5 6 7 8 9 10 11 12 13 14 15 16 17 18 19
000
FTUS43 KLMK 282000 AAA
TAFSDF
TAF AMD
KSDF 282033Z 2821/2924 27008KT P6SM VCTS FEW050CB BKN150
     FM290000 VRB04KT P6SM SCT040 BKN250
     FM290700 VRB03KT 5SM HZ SCT250
     FM291400 29005KT P6SM VCSH SCT040 SCT250=

USA.gov is the U.S. government's official web portal to all federal, state and local government web resources and services.